Huvudsida
METAR-TAF:

METAR-TAF

Flygplatser :

Norne Fpso, Norge

Oljeplattform

latitud: 66-01-48N, longitud: 008-04-48E, höjd: 10 m

Aktuellt väderrapport

Denna rapport gjordes för 22 minuter sedan, klockan 02:50 UTC
Vind 23 kt från sydost
Temperatur 1°C
Fuktighet 69%
Tryck 992 hPa
Sikt 10 km eller mer

METAR: ENNE 190250Z AUTO 13023KT 9999NDV BKN023/// 01/M04 Q0992 W///S5

Tid: 04:12 (03:12 UTC)

Väderprognos

Denna rapport gjordes för 13 timmar och 12 minuter sedan, klockan 14:00 UTC
Prognos gäller från 18 kl. 15 UTC till 18 kl. 18 UTC
Vind 28 kt från syd/sydost
Sikt 10 km eller mer
Få moln på en höjd av 1000 ft
Brutna moln på en höjd av 2500 ft
Sannolikhet 40% :
Temporärt
från 18 kl. 15 UTC till 18 kl. 18 UTC
Sikt: 2000 m
på en höjd av 800 ft
snöbyar, regn

TAF: ENNE 181400Z 1815/1818 15028KT 9999 FEW010 BKN025 PROB40 TEMPO 1815/1818 2000 SHSNRA VV008

Aktuella väderrapporter och prognoser från 4000 flygplatser (METAR- och TAF-rapporter).

De tillgängliga stationerna syns som gula och röda prickar på kartan.

För musen över prickarna för att se namnen på stationerna.

Klicka sedan för att få väderrapporter och prognoser.

För att ändra kartan: Klicka på de gröna knapparna med ett svart kors på för att zooma in; den gröna knappen med ett streck på för att zooma ut; eller på de gröna pilarna för angränsande kartor.


METAR-TAF: